createdAt,value
2018-07-17T00:00:28.677Z,17.49
2018-07-17T00:02:00.251Z,17.33
2018-07-17T00:03:31.922Z,17.31
2018-07-17T00:05:03.394Z,17.26
2018-07-17T00:06:34.967Z,17.21
2018-07-17T00:08:06.539Z,17.19
2018-07-17T00:09:38.260Z,17.23
2018-07-17T00:11:09.684Z,17.06
2018-07-17T00:12:41.308Z,17.15
2018-07-17T00:14:12.828Z,17.06
2018-07-17T00:15:44.400Z,17.01
2018-07-17T00:17:15.972Z,17.04
2018-07-17T00:18:47.544Z,17.00
2018-07-17T00:20:19.116Z,16.98
2018-07-17T00:21:50.689Z,17.00
2018-07-17T00:23:22.264Z,17.15
2018-07-17T00:24:53.833Z,17.21
2018-07-17T00:26:25.405Z,17.21
2018-07-17T00:27:57.077Z,17.03
2018-07-17T00:29:28.536Z,17.08
2018-07-17T00:31:00.108Z,17.01
2018-07-17T00:32:31.681Z,17.07
2018-07-17T00:34:03.352Z,17.01
2018-07-17T00:35:34.824Z,17.06
2018-07-17T00:37:06.396Z,16.98
2018-07-17T00:38:37.967Z,16.98
2018-07-17T00:40:09.547Z,16.98
2018-07-17T00:41:41.111Z,16.89
2018-07-17T00:43:12.684Z,16.86
2018-07-17T00:44:44.256Z,16.78
2018-07-17T00:46:15.928Z,16.70
2018-07-17T00:47:47.399Z,16.70
2018-07-17T00:49:18.971Z,16.70
2018-07-17T00:50:50.543Z,16.58
2018-07-17T00:52:22.115Z,16.75
2018-07-17T00:53:53.686Z,16.56
2018-07-17T00:55:25.258Z,16.58
2018-07-17T00:56:56.830Z,16.57
2018-07-17T00:58:28.401Z,16.63
2018-07-17T00:59:59.973Z,16.56
2018-07-17T01:01:31.546Z,16.57
2018-07-17T01:03:03.117Z,16.41
2018-07-17T01:04:34.788Z,16.35
2018-07-17T01:06:06.263Z,16.28
2018-07-17T01:07:37.832Z,16.45
2018-07-17T01:09:09.403Z,16.96
2018-07-17T01:10:40.976Z,17.48
2018-07-17T01:12:12.546Z,17.70
2018-07-17T01:13:44.121Z,17.97
2018-07-17T01:15:15.689Z,18.10
2018-07-17T01:16:47.260Z,18.08
2018-07-17T01:18:18.832Z,17.86
2018-07-17T01:19:50.403Z,17.66
2018-07-17T01:21:21.974Z,17.33
2018-07-17T01:22:53.646Z,17.21
2018-07-17T01:24:25.117Z,17.00
2018-07-17T01:25:56.689Z,16.98
2018-07-17T01:27:28.262Z,16.98
2018-07-17T01:28:59.832Z,16.94
2018-07-17T01:30:31.404Z,17.00
2018-07-17T01:32:02.975Z,17.11
2018-07-17T01:35:06.120Z,17.11
2018-07-17T01:36:37.689Z,17.01
2018-07-17T01:38:09.261Z,16.85
2018-07-17T01:39:40.832Z,16.70
2018-07-17T01:41:12.504Z,16.52
2018-07-17T01:42:43.975Z,16.52
2018-07-17T01:44:15.550Z,16.43
2018-07-17T01:45:47.118Z,16.24
2018-07-17T01:47:18.775Z,16.24
2018-07-17T01:48:50.264Z,16.30
2018-07-17T01:50:21.831Z,16.42
2018-07-17T01:51:53.403Z,16.66
2018-07-17T01:53:24.975Z,16.78
2018-07-17T01:54:56.546Z,16.68
2018-07-17T01:56:28.120Z,16.58
2018-07-17T01:57:59.687Z,16.70
2018-07-17T01:59:31.358Z,16.86
2018-07-17T02:01:02.831Z,17.08
2018-07-17T02:02:34.401Z,16.89
2018-07-17T02:04:05.972Z,16.71
2018-07-17T02:05:37.643Z,16.57
2018-07-17T02:07:09.114Z,16.75
2018-07-17T02:08:40.738Z,17.01
2018-07-17T02:10:12.262Z,16.81
2018-07-17T02:11:43.827Z,16.79
2018-07-17T02:13:15.397Z,16.58
2018-07-17T02:14:46.968Z,16.50
2018-07-17T02:16:18.540Z,16.42
2018-07-17T02:17:50.210Z,16.20
2018-07-17T02:19:21.680Z,16.08
2018-07-17T02:20:53.251Z,15.96
2018-07-17T02:22:24.824Z,15.82
2018-07-17T02:23:56.395Z,15.78
2018-07-17T02:25:27.963Z,15.75
2018-07-17T02:26:59.535Z,15.75
2018-07-17T02:28:31.105Z,15.69
2018-07-17T02:30:02.694Z,15.59
2018-07-17T02:31:34.283Z,15.68
2018-07-17T02:33:05.818Z,15.64
2018-07-17T02:34:37.388Z,15.50
2018-07-17T02:36:09.211Z,15.43
2018-07-17T02:37:40.529Z,15.32
2018-07-17T02:39:12.100Z,15.39
2018-07-17T02:40:43.671Z,15.53
2018-07-17T02:42:15.253Z,15.47
2018-07-17T02:43:46.843Z,15.35
2018-07-17T02:45:18.382Z,15.19
2018-07-17T02:46:49.958Z,15.10
2018-07-17T02:48:21.522Z,15.38
2018-07-17T02:49:53.094Z,15.97
2018-07-17T02:51:24.664Z,16.09
2018-07-17T02:52:56.234Z,15.97
2018-07-17T02:54:27.904Z,15.82
2018-07-17T02:55:59.615Z,15.57
2018-07-17T02:57:30.950Z,15.46
2018-07-17T02:59:02.519Z,15.43
2018-07-17T03:00:34.086Z,15.35
2018-07-17T03:02:05.657Z,15.41
2018-07-17T03:03:37.226Z,15.56
2018-07-17T03:05:08.804Z,15.50
2018-07-17T03:06:40.466Z,15.50
2018-07-17T03:08:11.936Z,15.50
2018-07-17T03:09:43.509Z,15.78
2018-07-17T03:11:15.077Z,16.09
2018-07-17T03:12:46.749Z,16.78
2018-07-17T03:14:18.216Z,16.93
2018-07-17T03:15:49.788Z,16.67
2018-07-17T03:17:21.357Z,16.46
2018-07-17T03:18:52.928Z,16.20
2018-07-17T03:20:24.498Z,16.04
2018-07-17T03:21:56.071Z,15.94
2018-07-17T03:23:27.638Z,15.82
2018-07-17T03:24:59.209Z,15.67
2018-07-17T03:26:30.779Z,15.71
2018-07-17T03:28:02.349Z,15.47
2018-07-17T03:29:33.919Z,15.41
2018-07-17T03:31:05.890Z,15.46
2018-07-17T03:32:37.060Z,15.36
2018-07-17T03:34:08.630Z,15.03
2018-07-17T03:35:40.200Z,14.88
2018-07-17T03:37:11.870Z,14.94
2018-07-17T03:38:43.345Z,15.01
2018-07-17T03:40:14.910Z,15.28
2018-07-17T03:41:46.480Z,15.25
2018-07-17T03:43:18.052Z,15.47
2018-07-17T03:44:49.621Z,15.60
2018-07-17T03:46:21.191Z,15.69
2018-07-17T03:47:52.760Z,15.78
2018-07-17T03:49:24.430Z,15.80
2018-07-17T03:50:55.901Z,15.82
2018-07-17T03:52:27.471Z,15.82
2018-07-17T03:53:59.044Z,15.97
2018-07-17T03:55:30.610Z,16.24
2018-07-17T03:57:02.181Z,16.56
2018-07-17T03:58:33.794Z,16.76
2018-07-17T04:00:05.321Z,16.68
2018-07-17T04:01:36.891Z,16.50
2018-07-17T04:03:08.461Z,16.34
2018-07-17T04:04:40.032Z,16.23
2018-07-17T04:06:11.602Z,16.00
2018-07-17T04:07:43.372Z,15.86
2018-07-17T04:09:14.742Z,15.89
2018-07-17T04:10:46.312Z,16.17
2018-07-17T04:12:17.884Z,16.41
2018-07-17T04:13:49.453Z,16.34
2018-07-17T04:15:21.022Z,16.15
2018-07-17T04:16:52.594Z,16.00
2018-07-17T04:18:24.162Z,16.14
2018-07-17T04:19:55.733Z,16.45
2018-07-17T04:21:27.303Z,16.39
2018-07-17T04:22:58.874Z,16.41
2018-07-17T04:24:30.443Z,16.21
2018-07-17T04:26:02.115Z,16.15
2018-07-17T04:27:33.584Z,16.08
2018-07-17T04:29:05.154Z,16.07
2018-07-17T04:30:36.725Z,15.97
2018-07-17T04:32:08.545Z,15.92
2018-07-17T04:33:39.864Z,15.96
2018-07-17T04:35:11.435Z,16.01
2018-07-17T04:36:43.005Z,16.05
2018-07-17T04:38:14.724Z,16.15
2018-07-17T04:39:46.146Z,16.23
2018-07-17T04:41:17.718Z,16.00
2018-07-17T04:42:49.285Z,15.86
2018-07-17T04:44:20.956Z,15.72
2018-07-17T04:45:52.426Z,15.50
2018-07-17T04:47:23.999Z,15.38
2018-07-17T04:48:55.566Z,15.27
2018-07-17T04:50:27.136Z,15.50
2018-07-17T04:51:58.706Z,15.57
2018-07-17T04:53:30.280Z,15.53
2018-07-17T04:55:01.848Z,15.53
2018-07-17T04:56:33.418Z,15.35
2018-07-17T04:58:04.986Z,15.21
2018-07-17T04:59:36.556Z,15.03
2018-07-17T05:01:08.126Z,14.98
2018-07-17T05:02:40.047Z,14.88
2018-07-17T05:04:11.265Z,15.03
2018-07-17T05:05:42.835Z,15.23
2018-07-17T05:07:14.405Z,15.36
2018-07-17T05:08:46.077Z,15.16
2018-07-17T05:10:17.544Z,15.13
2018-07-17T05:11:49.114Z,15.01
2018-07-17T05:13:20.685Z,14.77
2018-07-17T05:14:52.254Z,14.54
2018-07-17T05:16:23.894Z,14.42
2018-07-17T05:17:55.393Z,14.36
2018-07-17T05:19:26.961Z,14.36
2018-07-17T05:20:58.632Z,14.45
2018-07-17T05:22:30.100Z,14.33
2018-07-17T05:24:01.672Z,14.24
2018-07-17T05:25:33.240Z,14.12
2018-07-17T05:27:04.809Z,14.07
2018-07-17T05:28:36.378Z,14.40
2018-07-17T05:30:07.948Z,14.62
2018-07-17T05:31:39.518Z,14.65
2018-07-17T05:33:11.337Z,14.78
2018-07-17T05:34:42.655Z,14.89
2018-07-17T05:36:14.225Z,14.86
2018-07-17T05:37:45.795Z,15.03
2018-07-17T05:39:17.614Z,15.06
2018-07-17T05:40:48.934Z,15.01
2018-07-17T05:42:20.502Z,14.75
2018-07-17T05:43:52.072Z,14.68
2018-07-17T05:45:23.641Z,14.65
2018-07-17T05:46:55.215Z,14.52
2018-07-17T05:48:26.780Z,14.18
2018-07-17T05:49:58.349Z,13.87
2018-07-17T05:51:29.919Z,13.84
2018-07-17T05:53:01.490Z,13.75
2018-07-17T05:54:33.058Z,13.84
2018-07-17T05:56:04.627Z,13.73
2018-07-17T05:57:36.296Z,13.91
2018-07-17T05:59:07.768Z,13.89
2018-07-17T06:00:39.337Z,13.91
2018-07-17T06:02:10.905Z,13.81
2018-07-17T06:03:42.724Z,13.73
2018-07-17T06:05:14.042Z,13.69
2018-07-17T06:06:45.611Z,13.82
2018-07-17T06:08:17.182Z,13.73
2018-07-17T06:09:48.849Z,13.81
2018-07-17T06:11:20.318Z,13.71
2018-07-17T06:12:51.889Z,13.64
2018-07-17T06:14:23.456Z,13.60
2018-07-17T06:15:55.126Z,13.44
2018-07-17T06:17:26.596Z,13.41
2018-07-17T06:18:58.215Z,13.42
2018-07-17T06:20:29.734Z,13.32
2018-07-17T06:22:01.306Z,13.25
2018-07-17T06:23:32.871Z,13.22
2018-07-17T06:25:04.443Z,13.23
2018-07-17T06:26:36.009Z,13.05
2018-07-17T06:28:07.578Z,13.12
2018-07-17T06:29:39.146Z,13.20
2018-07-17T06:31:10.716Z,13.04
2018-07-17T06:32:42.284Z,13.23
2018-07-17T06:34:14.203Z,13.32
2018-07-17T06:35:45.421Z,13.08
2018-07-17T06:37:16.990Z,13.01
2018-07-17T06:38:48.592Z,13.07
2018-07-17T06:40:20.227Z,13.14
2018-07-17T06:41:51.696Z,13.14
2018-07-17T06:43:23.264Z,13.10
2018-07-17T06:44:54.836Z,13.20
2018-07-17T06:46:26.402Z,13.10
2018-07-17T06:47:57.972Z,13.12
2018-07-17T06:49:29.540Z,13.14
2018-07-17T06:51:01.111Z,13.23
2018-07-17T06:52:32.778Z,13.22
2018-07-17T06:54:04.247Z,13.17
2018-07-17T06:55:35.816Z,13.23
2018-07-17T06:57:07.385Z,13.15
2018-07-17T06:58:38.953Z,13.17
2018-07-17T07:00:10.541Z,13.10
2018-07-17T07:01:42.091Z,13.23
2018-07-17T07:03:13.660Z,13.20
2018-07-17T07:04:45.228Z,13.23
2018-07-17T07:06:16.796Z,13.22
2018-07-17T07:07:48.366Z,13.23
2018-07-17T07:09:19.933Z,13.15
2018-07-17T07:10:52.504Z,13.14
2018-07-17T07:12:23.070Z,13.14
2018-07-17T07:13:54.639Z,13.07
2018-07-17T07:15:26.208Z,13.07
2018-07-17T07:16:57.776Z,13.07
2018-07-17T07:18:29.345Z,13.11
2018-07-17T07:20:00.914Z,13.15
2018-07-17T07:21:32.482Z,13.05
2018-07-17T07:23:04.051Z,13.03
2018-07-17T07:24:35.620Z,12.95
2018-07-17T07:26:07.189Z,12.97
2018-07-17T07:27:38.757Z,12.95
2018-07-17T07:29:10.430Z,12.92
2018-07-17T07:30:41.896Z,12.75
2018-07-17T07:32:13.464Z,12.57
2018-07-17T07:33:45.032Z,12.70
2018-07-17T07:35:16.850Z,12.64
2018-07-17T07:36:48.169Z,13.14
2018-07-17T07:38:19.739Z,12.96
2018-07-17T07:39:51.306Z,12.83
2018-07-17T07:41:22.975Z,12.72
2018-07-17T07:42:54.508Z,12.70
2018-07-17T07:44:26.012Z,12.74
2018-07-17T07:45:57.580Z,12.78
2018-07-17T07:47:29.251Z,12.89
2018-07-17T07:49:00.717Z,12.90
2018-07-17T07:50:32.288Z,12.87
2018-07-17T07:52:03.855Z,12.71
2018-07-17T07:53:35.423Z,12.56
2018-07-17T07:55:06.991Z,12.35
2018-07-17T07:56:38.559Z,12.46
2018-07-17T07:58:10.129Z,12.39
2018-07-17T07:59:41.697Z,12.92
2018-07-17T08:01:13.265Z,12.93
2018-07-17T08:02:44.834Z,12.95
2018-07-17T08:04:16.402Z,12.78
2018-07-17T08:05:48.372Z,12.71
2018-07-17T08:07:19.539Z,12.62
2018-07-17T08:08:51.108Z,12.62
2018-07-17T08:10:22.677Z,12.65
2018-07-17T08:11:54.415Z,12.53
2018-07-17T08:13:25.813Z,12.47
2018-07-17T08:14:57.381Z,12.24
2018-07-17T08:16:28.974Z,12.12
2018-07-17T08:18:00.518Z,12.04
2018-07-17T08:19:32.087Z,12.07
2018-07-17T08:21:03.656Z,12.14
2018-07-17T08:22:35.224Z,12.35
2018-07-17T08:24:06.892Z,12.38
2018-07-17T08:25:38.404Z,12.34
2018-07-17T08:27:09.931Z,12.28
2018-07-17T08:28:41.588Z,12.31
2018-07-17T08:30:13.066Z,12.23
2018-07-17T08:31:44.633Z,12.31
2018-07-17T08:33:16.204Z,12.29
2018-07-17T08:34:47.769Z,12.21
2018-07-17T08:36:19.338Z,12.14
2018-07-17T08:37:50.909Z,12.07
2018-07-17T08:39:22.475Z,12.12
2018-07-17T08:40:54.045Z,12.19
2018-07-17T08:42:25.812Z,12.27
2018-07-17T08:43:57.180Z,12.45
2018-07-17T08:45:28.748Z,12.46
2018-07-17T08:47:00.318Z,12.45
2018-07-17T08:48:31.884Z,12.41
2018-07-17T08:50:03.452Z,12.35
2018-07-17T08:51:35.024Z,12.21
2018-07-17T08:53:06.589Z,12.16
2018-07-17T08:54:38.267Z,12.16
2018-07-17T08:56:09.724Z,12.07
2018-07-17T08:57:41.292Z,12.14
2018-07-17T08:59:12.861Z,12.14
2018-07-17T09:00:44.529Z,12.07
2018-07-17T09:02:16.005Z,12.09
2018-07-17T09:03:47.565Z,11.96
2018-07-17T09:05:19.133Z,12.01
2018-07-17T09:06:50.952Z,11.99
2018-07-17T09:08:22.270Z,12.05
2018-07-17T09:09:53.837Z,12.09
2018-07-17T09:11:25.406Z,11.99
2018-07-17T09:12:57.115Z,12.05
2018-07-17T09:14:28.544Z,12.05
2018-07-17T09:16:00.111Z,12.13
2018-07-17T09:17:31.678Z,12.12
2018-07-17T09:19:03.451Z,12.01
2018-07-17T09:20:34.817Z,12.01
2018-07-17T09:22:06.386Z,11.99
2018-07-17T09:23:37.951Z,11.88
2018-07-17T09:25:09.527Z,11.96
2018-07-17T09:26:41.338Z,11.85
2018-07-17T09:28:12.738Z,11.91
2018-07-17T09:29:44.222Z,11.96
2018-07-17T09:31:15.856Z,12.04
2018-07-17T09:32:47.363Z,12.13
2018-07-17T09:34:18.927Z,12.07
2018-07-17T09:35:50.494Z,12.13
2018-07-17T09:37:22.416Z,12.21
2018-07-17T09:38:53.665Z,12.27
2018-07-17T09:40:25.199Z,12.47
2018-07-17T09:41:56.766Z,12.41
2018-07-17T09:43:28.437Z,12.46
2018-07-17T09:44:59.902Z,12.31
2018-07-17T09:46:31.469Z,12.32
2018-07-17T09:48:03.038Z,12.14
2018-07-17T09:49:34.656Z,12.17
2018-07-17T09:51:06.323Z,12.16
2018-07-17T09:52:37.741Z,12.12
2018-07-17T09:55:41.107Z,12.39
2018-07-17T09:57:12.445Z,12.59
2018-07-17T09:58:44.209Z,12.71
2018-07-17T10:00:15.581Z,12.68
2018-07-17T10:01:47.150Z,12.59
2018-07-17T10:03:19.039Z,12.65
2018-07-17T10:04:50.387Z,13.10
2018-07-17T10:06:21.967Z,13.39
2018-07-17T10:07:53.670Z,13.69
2018-07-17T10:09:25.059Z,14.09
2018-07-17T10:10:56.559Z,14.33
2018-07-17T10:12:28.126Z,14.52
2018-07-17T10:14:00.577Z,14.91
2018-07-17T10:15:31.270Z,15.19
2018-07-17T10:18:34.405Z,15.89
2018-07-17T10:20:06.003Z,16.23
2018-07-17T10:21:37.650Z,16.45
2018-07-17T10:23:09.120Z,16.57
2018-07-17T10:24:40.886Z,16.76
2018-07-17T10:26:12.296Z,17.03
2018-07-17T10:27:43.825Z,17.51
2018-07-17T10:29:15.700Z,17.84
2018-07-17T10:30:46.967Z,17.72
2018-07-17T10:32:18.841Z,17.55
2018-07-17T10:33:50.213Z,17.04
2018-07-17T10:35:21.710Z,17.26
2018-07-17T10:38:24.825Z,17.52
2018-07-17T10:39:56.417Z,18.20
2018-07-17T10:41:27.969Z,18.88
2018-07-17T10:42:59.543Z,19.44
2018-07-17T10:44:31.344Z,19.88
2018-07-17T10:46:02.947Z,19.96
2018-07-17T10:47:34.297Z,20.16
2018-07-17T10:50:37.578Z,20.66
2018-07-17T10:52:10.136Z,20.77
2018-07-17T10:53:40.609Z,21.13
2018-07-17T10:55:12.139Z,21.21
2018-07-17T10:58:15.289Z,21.67
2018-07-17T10:59:46.861Z,22.06
2018-07-17T11:01:18.436Z,22.31
2018-07-17T11:04:21.891Z,22.73
2018-07-17T11:05:53.348Z,23.02
2018-07-17T11:07:24.742Z,23.15
2018-07-17T11:08:56.320Z,22.92
2018-07-17T11:10:28.063Z,22.98
2018-07-17T11:13:31.053Z,23.35
2018-07-17T11:15:03.162Z,23.73
2018-07-17T11:16:35.017Z,23.94
2018-07-17T11:18:05.985Z,23.87
2018-07-17T11:19:37.810Z,23.63
2018-07-17T11:21:08.944Z,23.57
2018-07-17T11:22:40.523Z,23.40
2018-07-17T11:24:12.103Z,23.55
2018-07-17T11:25:43.682Z,23.50
2018-07-17T11:27:15.261Z,24.22
2018-07-17T11:30:18.520Z,25.13
2018-07-17T11:33:21.680Z,25.65
2018-07-17T11:34:53.697Z,25.45
2018-07-17T11:36:25.044Z,24.67
2018-07-17T11:37:56.324Z,24.49
2018-07-17T11:39:27.901Z,24.95
2018-07-17T11:40:59.482Z,25.15
2018-07-17T11:44:02.846Z,24.25
2018-07-17T11:45:34.226Z,24.16
2018-07-17T11:47:05.807Z,24.78
2018-07-17T11:48:37.439Z,25.32
2018-07-17T11:50:09.219Z,24.96
2018-07-17T11:53:12.182Z,24.25
2018-07-17T11:57:46.886Z,25.06
2018-07-17T11:59:19.124Z,24.25
2018-07-17T12:00:50.038Z,24.76
2018-07-17T12:03:53.200Z,25.55
2018-07-17T12:05:24.809Z,25.65
2018-07-17T12:06:56.369Z,26.17
2018-07-17T12:08:27.951Z,26.33
2018-07-17T12:09:59.640Z,26.45
2018-07-17T12:11:31.109Z,26.67
2018-07-17T12:14:34.273Z,26.48
2018-07-17T12:16:05.856Z,26.50
2018-07-17T12:17:37.438Z,26.63
2018-07-17T12:20:40.605Z,26.65
2018-07-17T12:22:12.286Z,26.58
2018-07-17T12:23:43.768Z,26.65
2018-07-17T12:25:15.351Z,26.10
2018-07-17T12:26:46.933Z,26.23
2018-07-17T12:28:18.617Z,26.15
2018-07-17T12:29:50.144Z,25.90
2018-07-17T12:31:21.681Z,26.18
2018-07-17T12:34:24.846Z,25.64
2018-07-17T12:35:56.733Z,25.54
2018-07-17T12:37:28.011Z,25.91
2018-07-17T12:38:59.594Z,26.70
2018-07-17T12:40:31.176Z,26.62
2018-07-17T12:43:34.342Z,25.60
2018-07-17T12:45:05.925Z,25.28
2018-07-17T12:46:37.608Z,24.84
2018-07-17T12:48:09.091Z,25.47
2018-07-17T12:51:12.256Z,25.83
2018-07-17T12:52:43.839Z,25.17
2018-07-17T12:54:15.425Z,24.50
2018-07-17T12:55:47.005Z,24.39
2018-07-17T12:57:18.590Z,24.27
2018-07-17T12:58:50.171Z,23.78
2018-07-17T13:00:21.880Z,23.50
2018-07-17T13:01:53.337Z,23.40
2018-07-17T13:03:24.917Z,23.28
2018-07-17T13:04:56.601Z,23.51
2018-07-17T13:07:59.664Z,23.38
2018-07-17T13:11:04.704Z,23.25
2018-07-17T13:12:34.409Z,24.09
2018-07-17T13:14:05.991Z,24.78
2018-07-17T13:15:37.614Z,23.93
2018-07-17T13:17:09.157Z,23.39
2018-07-17T13:18:40.736Z,23.50
2018-07-17T13:20:12.317Z,24.39
2018-07-17T13:21:43.899Z,23.95
2018-07-17T13:23:15.581Z,25.14
2018-07-17T13:26:19.174Z,25.60
2018-07-17T13:27:50.225Z,25.47
2018-07-17T13:29:21.806Z,25.55
2018-07-17T13:30:53.388Z,23.97
2018-07-17T13:33:56.556Z,24.64
2018-07-17T13:35:28.134Z,24.99
2018-07-17T13:36:59.717Z,24.99
2018-07-17T13:41:08.132Z,25.30
2018-07-17T13:41:46.334Z,26.10
2018-07-17T13:43:17.916Z,25.76
2018-07-17T13:44:49.584Z,25.67
2018-07-17T13:46:21.147Z,25.45
2018-07-17T13:47:52.665Z,25.91
2018-07-17T13:49:24.469Z,25.05
2018-07-17T13:50:55.874Z,25.61
2018-07-17T13:52:27.350Z,25.64
2018-07-17T13:53:59.139Z,26.37
2018-07-17T13:55:30.679Z,26.81
2018-07-17T13:57:02.126Z,26.60
2018-07-17T13:58:33.783Z,26.97
2018-07-17T14:01:37.380Z,26.54
2018-07-17T14:03:08.430Z,26.21
2018-07-17T14:04:40.014Z,26.62
2018-07-17T14:06:11.596Z,26.77
2018-07-17T14:10:46.347Z,25.51
2018-07-17T14:12:17.955Z,25.58
2018-07-17T14:13:49.514Z,26.82
2018-07-17T14:15:21.098Z,26.89
2018-07-17T14:16:52.781Z,27.21
2018-07-17T14:18:24.269Z,25.94
2018-07-17T14:19:55.847Z,25.18
2018-07-17T14:22:59.016Z,26.36
2018-07-17T14:24:30.604Z,27.24
2018-07-17T14:26:02.181Z,26.77
2018-07-17T14:27:34.297Z,26.32
2018-07-17T14:29:05.356Z,26.75
2018-07-17T14:30:36.951Z,25.95
2018-07-17T14:32:08.518Z,25.98
2018-07-17T14:33:40.099Z,27.18
2018-07-17T14:38:14.960Z,27.97
2018-07-17T14:39:46.434Z,28.68
2018-07-17T14:42:49.602Z,27.44
2018-07-17T14:44:21.185Z,27.09
2018-07-17T14:45:52.770Z,27.46
2018-07-17T14:47:24.355Z,27.81
2018-07-17T14:48:55.938Z,26.07
2018-07-17T14:50:27.540Z,26.32
2018-07-17T14:51:59.208Z,26.44
2018-07-17T14:53:30.691Z,26.72
2018-07-17T14:55:02.280Z,26.40
2018-07-17T14:56:33.960Z,26.95
2018-07-17T14:58:05.447Z,27.18
2018-07-17T15:01:08.610Z,27.32
2018-07-17T15:02:40.294Z,27.13
2018-07-17T15:04:11.778Z,26.72
2018-07-17T15:05:43.566Z,27.19
2018-07-17T15:07:14.949Z,27.44
2018-07-17T15:08:46.530Z,26.62
2018-07-17T15:10:18.117Z,26.97
2018-07-17T15:11:49.699Z,27.70
2018-07-17T15:14:52.967Z,27.78
2018-07-17T15:16:24.453Z,27.22
2018-07-17T15:17:56.037Z,26.92
2018-07-17T15:19:27.619Z,27.77
2018-07-17T15:20:59.204Z,27.12
2018-07-17T15:22:31.439Z,26.87
2018-07-17T15:24:02.374Z,25.99
2018-07-17T15:25:33.959Z,26.54
2018-07-17T15:27:05.543Z,27.18
2018-07-17T15:28:37.429Z,27.66
2018-07-17T15:30:08.710Z,27.24
2018-07-17T15:31:40.293Z,27.69
2018-07-17T15:34:43.863Z,26.70
2018-07-17T15:36:15.047Z,26.92
2018-07-17T15:37:47.366Z,26.66
2018-07-17T15:39:18.216Z,26.75
2018-07-17T15:40:49.799Z,26.36
2018-07-17T15:43:53.270Z,27.65
2018-07-17T15:45:24.560Z,27.41
2018-07-17T15:46:56.146Z,27.00
2018-07-17T15:49:59.507Z,27.93
2018-07-17T15:51:30.893Z,28.21
2018-07-17T15:53:02.571Z,28.85
2018-07-17T15:54:34.055Z,28.56
2018-07-17T15:56:05.643Z,28.39
2018-07-17T15:57:37.221Z,28.12
2018-07-17T15:59:08.805Z,28.96
2018-07-17T16:00:40.390Z,28.24
2018-07-17T16:02:11.976Z,27.65
2018-07-17T16:03:43.557Z,27.41
2018-07-17T16:05:15.242Z,28.24
2018-07-17T16:06:46.729Z,29.12
2018-07-17T16:08:18.311Z,27.59
2018-07-17T16:09:49.894Z,26.94
2018-07-17T16:11:21.578Z,27.59
2018-07-17T16:12:53.063Z,28.95
2018-07-17T16:14:25.407Z,28.95
2018-07-17T16:15:56.231Z,28.93
2018-07-17T16:17:27.816Z,28.07
2018-07-17T16:18:59.401Z,28.48
2018-07-17T16:20:30.988Z,28.40
2018-07-17T16:22:02.571Z,28.18
2018-07-17T16:23:34.156Z,27.99
2018-07-17T16:25:05.739Z,27.85
2018-07-17T16:26:37.453Z,28.52
2018-07-17T16:28:08.913Z,28.56
2018-07-17T16:29:40.593Z,27.94
2018-07-17T16:31:12.078Z,27.37
2018-07-17T16:32:43.667Z,27.87
2018-07-17T16:34:15.246Z,28.04
2018-07-17T16:35:46.931Z,27.67
2018-07-17T16:37:18.479Z,26.52
2018-07-17T16:38:50.254Z,27.87
2018-07-17T16:40:21.584Z,28.14
2018-07-17T16:41:53.173Z,29.23
2018-07-17T16:43:25.057Z,28.95
2018-07-17T16:44:56.338Z,29.12
2018-07-17T16:46:28.126Z,28.88
2018-07-17T16:47:59.704Z,30.01
2018-07-17T16:49:31.574Z,29.76
2018-07-17T16:51:02.985Z,27.74
2018-07-17T16:52:34.259Z,27.77
2018-07-17T16:54:06.286Z,29.04
2018-07-17T16:57:09.214Z,30.69
2018-07-17T16:58:40.599Z,29.68
2018-07-17T17:00:12.385Z,28.25
2018-07-17T17:01:43.769Z,27.67
2018-07-17T17:03:15.497Z,28.21
2018-07-17T17:04:46.947Z,28.70
2018-07-17T17:06:19.188Z,28.78
2018-07-17T17:07:50.107Z,28.76
2018-07-17T17:09:21.692Z,28.43
2018-07-17T17:10:53.660Z,28.41
2018-07-17T17:12:25.275Z,28.44
2018-07-17T17:13:56.447Z,28.85
2018-07-17T17:15:28.036Z,29.76
2018-07-17T17:16:59.614Z,28.59
2018-07-17T17:18:31.199Z,28.90
2018-07-17T17:21:34.368Z,27.99
2018-07-17T17:24:37.719Z,28.80
2018-07-17T17:26:09.120Z,29.48
2018-07-17T17:27:40.908Z,29.68
2018-07-17T17:29:12.351Z,29.00
2018-07-17T17:30:43.883Z,29.57
2018-07-17T17:32:15.458Z,28.44
2018-07-17T17:35:18.626Z,28.54
2018-07-17T17:36:50.441Z,28.55
2018-07-17T17:38:21.798Z,28.40
2018-07-17T17:39:53.442Z,27.70
2018-07-17T17:41:25.485Z,27.99
2018-07-17T17:42:57.142Z,28.46
2018-07-17T17:44:28.132Z,28.88
2018-07-17T17:45:59.724Z,28.14
2018-07-17T17:47:31.337Z,28.15
2018-07-17T17:49:02.883Z,29.19
2018-07-17T17:50:34.465Z,30.62
2018-07-17T17:52:06.048Z,31.02
2018-07-17T17:53:37.633Z,30.64
2018-07-17T17:55:09.224Z,31.17
2018-07-17T17:56:41.381Z,29.36
2018-07-17T17:58:12.383Z,28.44
2018-07-17T17:59:44.069Z,29.65
2018-07-17T18:01:15.661Z,30.10
2018-07-17T18:02:47.135Z,30.46
2018-07-17T18:04:19.251Z,30.61
2018-07-17T18:05:50.351Z,28.83
2018-07-17T18:07:21.888Z,29.08
2018-07-17T18:08:53.470Z,29.41
2018-07-17T18:11:56.642Z,28.36
2018-07-17T18:13:28.226Z,28.36
2018-07-17T18:16:31.412Z,28.29
2018-07-17T18:18:02.972Z,29.45
2018-07-17T18:19:34.734Z,29.70
2018-07-17T18:21:06.138Z,29.51
2018-07-17T18:22:37.759Z,29.09
2018-07-17T18:24:09.347Z,28.67
2018-07-17T18:25:40.890Z,29.42
2018-07-17T18:27:12.471Z,29.23
2018-07-17T18:28:44.079Z,29.83
2018-07-17T18:30:15.638Z,30.45
2018-07-17T18:31:47.222Z,29.60
2018-07-17T18:33:19.107Z,29.16
2018-07-17T18:34:50.418Z,29.45
2018-07-17T18:36:21.970Z,29.78
2018-07-17T18:37:54.007Z,30.84
2018-07-17T18:39:25.136Z,31.28
2018-07-17T18:40:56.728Z,32.30
2018-07-17T18:42:28.302Z,31.26
2018-07-17T18:43:59.885Z,30.70
2018-07-17T18:45:31.469Z,30.57
2018-07-17T18:48:34.638Z,30.83
2018-07-17T18:50:12.865Z,31.36
2018-07-17T18:51:37.820Z,30.97
2018-07-17T18:53:09.384Z,30.77
2018-07-17T18:54:40.974Z,30.04
2018-07-17T18:56:12.701Z,29.67
2018-07-17T18:57:44.134Z,29.41
2018-07-17T18:59:15.721Z,29.37
2018-07-17T19:00:47.300Z,28.59
2018-07-17T19:02:18.882Z,29.09
2018-07-17T19:03:50.465Z,29.53
2018-07-17T19:05:22.052Z,30.51
2018-07-17T19:06:53.631Z,31.17
2018-07-17T19:08:25.212Z,31.32
2018-07-17T19:09:56.799Z,31.54
2018-07-17T19:11:28.400Z,31.36
2018-07-17T19:12:59.973Z,30.75
2018-07-17T19:14:31.643Z,29.79
2018-07-17T19:16:03.872Z,30.11
2018-07-17T19:17:35.052Z,30.32
2018-07-17T19:19:06.610Z,30.65
2018-07-17T19:20:38.330Z,29.36
2018-07-17T19:22:09.453Z,29.64
2018-07-17T19:23:41.036Z,29.43
2018-07-17T19:25:12.649Z,29.14
2018-07-17T19:26:44.248Z,29.21
2018-07-17T19:28:15.782Z,29.06
2018-07-17T19:29:47.361Z,29.05
2018-07-17T19:31:18.944Z,29.14
2018-07-17T19:32:50.623Z,28.80
2018-07-17T19:34:22.110Z,28.18
2018-07-17T19:35:53.698Z,28.24
2018-07-17T19:37:25.266Z,27.93
2018-07-17T19:38:56.853Z,27.46
2018-07-17T19:40:28.428Z,27.37
2018-07-17T19:42:00.035Z,27.17
2018-07-17T19:43:31.597Z,27.10
2018-07-17T19:45:03.167Z,27.41
2018-07-17T19:46:34.747Z,27.29
2018-07-17T19:48:06.328Z,27.77
2018-07-17T19:49:37.906Z,28.02
2018-07-17T19:51:09.587Z,27.43
2018-07-17T19:52:41.069Z,27.02
2018-07-17T19:54:12.646Z,26.92
2018-07-17T19:55:44.228Z,26.63
2018-07-17T19:57:15.835Z,26.06
2018-07-17T19:58:47.383Z,25.99
2018-07-17T20:00:18.992Z,25.95
2018-07-17T20:01:50.544Z,25.95
2018-07-17T20:03:22.119Z,25.65
2018-07-17T20:04:53.698Z,25.69
2018-07-17T20:06:25.479Z,25.18
2018-07-17T20:07:56.861Z,25.03
2018-07-17T20:09:28.556Z,24.91
2018-07-17T20:11:00.014Z,24.78
2018-07-17T20:12:31.598Z,24.81
2018-07-17T20:14:03.166Z,24.62
2018-07-17T20:15:34.744Z,24.65
2018-07-17T20:17:06.321Z,24.27
2018-07-17T20:18:37.901Z,24.00
2018-07-17T20:20:09.477Z,23.75
2018-07-17T20:21:41.053Z,23.46
2018-07-17T20:23:12.638Z,23.35
2018-07-17T20:24:44.207Z,23.00
2018-07-17T20:26:15.794Z,22.90
2018-07-17T20:27:47.462Z,22.77
2018-07-17T20:29:18.941Z,22.54
2018-07-17T20:30:50.514Z,22.47
2018-07-17T20:32:22.093Z,22.27
2018-07-17T20:33:53.667Z,22.15
2018-07-17T20:35:25.243Z,22.07
2018-07-17T20:36:56.819Z,21.96
2018-07-17T20:38:28.394Z,21.96
2018-07-17T20:39:59.970Z,21.83
2018-07-17T20:41:31.545Z,21.80
2018-07-17T20:43:03.121Z,21.61
2018-07-17T20:44:34.697Z,21.50
2018-07-17T20:46:06.375Z,21.49